AirNav   Everest Fuels
 
 883 users online  

77CO UCH-MHS Memorial North Heliport
Colorado Springs, Colorado, USA

GOING TO COLORADO SPRINGS?


FAA INFORMATION EFFECTIVE 10 OCTOBER 2019

Location

FAA Identifier: 77CO
Lat/Long: 38-57-58.8900N 104-45-21.6400W
38-57.981500N 104-45.360667W
38.9663583,-104.7560111
(estimated)
Elevation: 6901 ft. / 2103 m
From city: 10 miles SW of COLORADO SPRINGS, CO
Time zone: UTC -6 (UTC -7 during Standard Time)
Zip code: 80920

Heliport Operations

Heliport use: Private use. Permission required prior to landing
Activation date: 05/2007
Control tower: no
ARTCC: DENVER CENTER
FSS: DENVER FLIGHT SERVICE STATION
Attendance: UNATNDD
Segmented circle: no

Heliport Communications

WX AWOS-3PT at FLY (9 nm E): 118.450 (719-683-5371)
WX ASOS at COS (10 nm S): PHONE 719-380-6748
WX AWOS-3 at FCS (17 nm S): 125.0 (719-637-9696)

Nearby radio navigation aids

VOR radial/distance  VOR name  Freq  Var
BRKr275/5.9BLACK FOREST VOR/DME112.5008E
FCSr348/17.1BUTTS VOR/DME108.8012E

 
NDB name  Hdg/Dist  Freq  Var  ID
IRONHORSE348/17.333512EIHS .. .... ...

Heliport Services

Runway Information

Helipad H1

Dimensions: 63 x 63 ft. / 19 x 19 m
Surface: concrete, in good condition
Latitude: 38-57.981500N
Longitude: 104-45.360667W
Elevation: 6901.0 ft.
Traffic pattern: leftleft

Heliport Ownership and Management from official FAA records

Ownership: Privately-owned
Owner: UCH - MHS
1700 EAST BOULDER ST
COLORADO SPRINGS, CO 80909
Phone 719-365-5000
Manager: MICHAEL THRALLS
1700 EAST BOULDER ST
COLORADO SPRINGS, CO 80909
Phone 719-365-5000

Additional Remarks

FOR CD CTC COLORADO SPRINGS APCH AT 719-556-9105.

Instrument Procedures

There are no published instrument procedures at 77CO.

Some nearby airports with instrument procedures:

KCOS - City of Colorado Springs Municipal Airport (10 nm S)
1V6 - Fremont County Airport (36 nm SW)
KAPA - Centennial Airport (36 nm N)
KPUB - Pueblo Memorial Airport (42 nm S)
KBKF - Buckley Air Force Base (44 nm N)
 
Loc | Ops | Rwys | IFR | FBO | Links
Com | Nav | Svcs | Stats | Notes

AirBoss

 
Aerial photo
No photo
 
Sectional chart

 
Airport distance calculator
Flying to UCH-MHS Memorial North Heliport? Find the distance to fly.

From to 77CO

Sunrise and sunset
Times for 17-Oct-2019
 Local
(UTC-6)
 Zulu
(UTC)
Morning civil twilight06:4512:45
Sunrise07:1213:12
Sunset18:1700:17
Evening civil twilight18:4400:44

Current date and time
Zulu (UTC)  18-Oct-2019 03:11:58
Local (UTC-6)  17-Oct-2019 21:11:58
 
METAR
KAFF 
3nm W 
180258Z AUTO 33008KT 10SM CLR 09/M12 A2971 RMK AO2 SLP009 T00851120 57004
KFLY 
9nm E 
180255Z AUTO 00000KT 10SM CLR 12/M15 A2975 RMK AO2 T01151153
KCOS 
9nm S 
180254Z 16005KT 10SM FEW250 19/M13 A2972 RMK AO2 SLP987 T01891128 56009
KMNH 
16nm N 
180248Z AUTO 20006KT 10SM CLR 10/M12 A2976 RMK AO2
KFCS 
18nm S 
180258Z AUTO 33003KT 10SM CLR 14/M12 A2968 RMK AO2 SLP022 T01371125 55007
TAF
KAFF 
3nm W 
172225Z 1722/1901 16013G21KT 9999 OVC200 510009 QNH2970INS BECMG 1723/1724 25020G30KT 9999 SCT120 BKN200 520003 530309 QNH2971INS BECMG 1805/1806 25025G35KT 9999 SKC 530009 QNH2970INS BECMG 1813/1814 03012KT 9999 SKC 530309 QNH2969INS WND 300V090 ROTOR CONDS EXIST BECMG 1816/1817 34012G22KT 9999 SCT050 520009 QNH2966INS TEMPO 1819/1823 36015G25KT BECMG 1900/1901 03010G15KT 9999 FEW050 SCT100 QNH2982INS TX24/1723Z TN12/1816Z LAST NO AMDS AFT 1800 NEXT 2111
KCOS 
9nm S 
171742Z 1718/1818 17008KT P6SM SCT250 FM171900 18015KT P6SM BKN200 FM180300 35009KT P6SM FEW200
KFCS 
18nm S 
180020Z 1800/1903 16005KT 9999 SCT250 BKN300 QNH2969INS BECMG 1802/1803 21009KT 9999 SCT250 QNH2968INS BECMG 1817/1818 33012G20KT 9999 FEW080 SCT130 QNH2966INS BECMG 1819/1820 33018G30KT 9999 -RA OVC080 520009 QNH2966INS BECMG 1901/1902 33009KT 9999 NSW FEW150 QNH2986INS TX20/1800Z TN06/1810Z
NOTAMs
Click for the latest NOTAMs
NOTAMs are issued by the DoD/FAA and will open in a separate window not controlled by AirNav.

 

 
 

Would you like to see your business listed on this page?

 If your business provides an interesting product or service to pilots, flight crews, aircraft, or users of the UCH-MHS Memorial North Heliport, you should consider listing it here.  To start the listing process, click on the button below
 
Add a business
 

Other Pages about UCH-MHS Memorial North Heliport

Update a link
 
Copyright © AirNav, LLC. All rights reserved. Privacy Policy  Contact